createdAt,value
2019-01-15T00:03:44.220Z,2.20
2019-01-15T00:06:13.461Z,2.20
2019-01-15T00:08:54.385Z,2.10
2019-01-15T00:11:35.213Z,2.10
2019-01-15T00:17:11.550Z,2.10
2019-01-15T00:19:59.769Z,2.00
2019-01-15T00:22:48.058Z,2.00
2019-01-15T00:25:36.209Z,2.10
2019-01-15T00:28:24.447Z,2.10
2019-01-15T00:31:12.665Z,2.10
2019-01-15T00:34:00.896Z,2.10
2019-01-15T00:36:49.111Z,2.10
2019-01-15T00:42:25.486Z,2.10
2019-01-15T00:45:14.328Z,2.10
2019-01-15T00:48:02.537Z,2.00
2019-01-15T00:50:50.821Z,2.10
2019-01-15T00:53:19.875Z,2.10
2019-01-15T00:56:08.044Z,2.00
2019-01-15T00:58:56.211Z,2.00
2019-01-15T01:01:44.531Z,2.00
2019-01-15T01:04:32.755Z,1.90
2019-01-15T01:07:21.057Z,1.90
2019-01-15T01:10:02.282Z,1.90
2019-01-15T01:12:31.391Z,1.90
2019-01-15T01:15:19.647Z,1.90
2019-01-15T01:18:07.855Z,2.00
2019-01-15T01:20:56.044Z,2.00
2019-01-15T01:23:44.194Z,2.00
2019-01-15T01:26:32.544Z,2.00
2019-01-15T01:29:20.738Z,2.00
2019-01-15T01:32:09.017Z,2.00
2019-01-15T01:34:38.077Z,2.00
2019-01-15T01:37:26.543Z,2.00
2019-01-15T01:40:15.678Z,2.00
2019-01-15T01:43:04.011Z,2.00
2019-01-15T01:45:52.214Z,2.00
2019-01-15T01:48:21.259Z,2.00
2019-01-15T01:51:09.441Z,2.00
2019-01-15T01:53:38.498Z,2.00
2019-01-15T01:56:07.616Z,2.00
2019-01-15T01:58:36.677Z,2.00
2019-01-15T02:01:24.906Z,2.00
2019-01-15T02:04:13.198Z,1.90
2019-01-15T02:07:01.413Z,1.90
2019-01-15T02:09:42.561Z,1.90
2019-01-15T02:12:22.988Z,1.90
2019-01-15T02:15:03.451Z,1.90
2019-01-15T02:17:44.263Z,1.90
2019-01-15T02:20:25.094Z,1.90
2019-01-15T02:23:05.826Z,1.90
2019-01-15T02:25:34.871Z,1.90
2019-01-15T02:28:23.078Z,1.90
2019-01-15T02:31:11.481Z,1.90
2019-01-15T02:33:59.671Z,2.00
2019-01-15T02:36:47.942Z,2.00
2019-01-15T02:39:36.149Z,2.00
2019-01-15T02:42:24.431Z,2.00
2019-01-15T02:45:13.183Z,2.00
2019-01-15T02:48:01.388Z,2.00
2019-01-15T02:50:30.449Z,2.00
2019-01-15T02:53:18.863Z,2.00
2019-01-15T02:56:07.119Z,2.00
2019-01-15T02:58:55.282Z,2.00
2019-01-15T03:01:43.549Z,2.00
2019-01-15T03:04:31.745Z,2.00
2019-01-15T03:07:20.041Z,2.00
2019-01-15T03:10:01.094Z,2.00
2019-01-15T03:12:43.223Z,1.90
2019-01-15T03:15:23.945Z,1.90
2019-01-15T03:18:05.318Z,1.90
2019-01-15T03:20:46.078Z,1.90
2019-01-15T03:23:27.355Z,1.90
2019-01-15T03:26:08.482Z,1.90
2019-01-15T03:28:49.212Z,1.90
2019-01-15T03:31:18.318Z,1.90
2019-01-15T03:34:06.500Z,1.80
2019-01-15T03:36:54.695Z,1.90
2019-01-15T03:39:43.260Z,1.80
2019-01-15T03:42:31.527Z,1.90
2019-01-15T03:45:19.871Z,1.90
2019-01-15T03:48:08.225Z,1.90
2019-01-15T03:50:56.585Z,1.90
2019-01-15T03:53:25.828Z,1.90
2019-01-15T03:56:14.084Z,1.90
2019-01-15T03:59:02.253Z,1.90
2019-01-15T04:01:50.471Z,2.00
2019-01-15T04:04:39.187Z,2.00
2019-01-15T04:07:27.486Z,2.00
2019-01-15T04:10:09.159Z,2.00
2019-01-15T04:12:38.324Z,2.00
2019-01-15T04:15:26.747Z,2.00
2019-01-15T04:18:15.038Z,2.00
2019-01-15T04:21:03.754Z,2.00
2019-01-15T04:26:27.083Z,2.10
2019-01-15T04:29:15.269Z,2.10
2019-01-15T04:32:03.468Z,2.10
2019-01-15T04:34:51.744Z,2.10
2019-01-15T04:37:39.936Z,2.10
2019-01-15T04:40:28.152Z,2.10
2019-01-15T04:43:19.955Z,2.20
2019-01-15T04:46:06.291Z,2.20
2019-01-15T04:48:54.551Z,2.20
2019-01-15T04:51:42.784Z,2.20
2019-01-15T04:54:31.052Z,2.20
2019-01-15T04:57:19.305Z,2.20
2019-01-15T05:00:11.854Z,2.30
2019-01-15T05:05:41.877Z,2.30
2019-01-15T05:08:11.023Z,2.30
2019-01-15T05:10:40.177Z,2.40
2019-01-15T05:13:09.384Z,2.30
2019-01-15T05:15:57.556Z,2.40
2019-01-15T05:18:45.795Z,2.40
2019-01-15T05:21:14.895Z,2.40
2019-01-15T05:24:03.087Z,2.40
2019-01-15T05:26:51.321Z,2.40
2019-01-15T05:29:39.564Z,2.40
2019-01-15T05:32:27.769Z,2.40
2019-01-15T05:35:15.961Z,2.50
2019-01-15T05:38:04.156Z,2.50
2019-01-15T05:40:52.336Z,2.50
2019-01-15T05:43:21.443Z,2.50
2019-01-15T05:46:09.672Z,2.50
2019-01-15T05:48:57.903Z,2.50
2019-01-15T05:51:46.373Z,2.50
2019-01-15T05:54:34.944Z,2.60
2019-01-15T05:57:23.166Z,2.60
2019-01-15T06:00:11.513Z,2.70
2019-01-15T06:02:59.707Z,2.70
2019-01-15T06:05:48.035Z,2.70
2019-01-15T06:08:17.258Z,2.70
2019-01-15T06:10:47.720Z,2.80
2019-01-15T06:13:42.484Z,2.80
2019-01-15T06:16:25.989Z,2.90
2019-01-15T06:19:14.202Z,3.00
2019-01-15T06:22:02.521Z,3.00
2019-01-15T06:24:50.762Z,3.00
2019-01-15T06:27:39.195Z,3.00
2019-01-15T06:30:27.477Z,3.10
2019-01-15T06:33:15.648Z,3.10
2019-01-15T06:36:03.858Z,3.10
2019-01-15T06:38:52.137Z,3.10
2019-01-15T06:41:40.389Z,3.10
2019-01-15T06:44:28.706Z,3.20
2019-01-15T06:47:17.853Z,3.20
2019-01-15T06:50:06.047Z,3.20
2019-01-15T06:52:54.262Z,3.20
2019-01-15T06:58:49.833Z,3.20
2019-01-15T07:01:38.025Z,3.20
2019-01-15T07:07:19.879Z,3.30
2019-01-15T07:10:30.209Z,3.30
2019-01-15T07:13:10.924Z,3.30
2019-01-15T07:15:40.020Z,3.40
2019-01-15T07:18:28.300Z,3.40
2019-01-15T07:21:16.508Z,3.40
2019-01-15T07:24:04.694Z,3.40
2019-01-15T07:26:52.965Z,3.40
2019-01-15T07:29:41.184Z,3.50
2019-01-15T07:32:29.336Z,3.50
2019-01-15T07:34:58.460Z,3.50
2019-01-15T07:37:46.575Z,3.50
2019-01-15T07:40:34.796Z,3.50
2019-01-15T07:43:23.036Z,3.60
2019-01-15T07:46:11.241Z,3.60
2019-01-15T07:48:59.443Z,3.60
2019-01-15T07:54:41.644Z,3.70
2019-01-15T07:57:29.869Z,3.70
2019-01-15T08:00:18.871Z,3.70
2019-01-15T08:06:14.369Z,3.70
2019-01-15T08:12:04.524Z,3.70
2019-01-15T08:14:45.483Z,3.70
2019-01-15T08:17:26.304Z,3.80
2019-01-15T08:19:55.391Z,3.80
2019-01-15T08:22:43.603Z,3.80
2019-01-15T08:25:31.780Z,3.80
2019-01-15T08:28:19.976Z,3.80
2019-01-15T08:31:08.171Z,3.90
2019-01-15T08:33:56.371Z,3.90
2019-01-15T08:36:44.538Z,4.00
2019-01-15T08:39:32.774Z,4.00
2019-01-15T08:42:02.117Z,4.00
2019-01-15T08:44:50.475Z,4.10
2019-01-15T08:47:44.960Z,4.10
2019-01-15T08:50:33.459Z,4.10
2019-01-15T08:53:40.660Z,4.10
2019-01-15T08:56:28.828Z,4.20
2019-01-15T08:59:16.991Z,4.10
2019-01-15T09:04:40.067Z,4.20
2019-01-15T09:07:28.327Z,4.20
2019-01-15T09:10:28.527Z,4.30
2019-01-15T09:13:01.349Z,4.30
2019-01-15T09:18:12.786Z,4.30
2019-01-15T09:20:42.045Z,4.40
2019-01-15T09:23:11.107Z,4.40
2019-01-15T09:25:40.255Z,4.40
2019-01-15T09:28:09.317Z,4.40
2019-01-15T09:30:38.387Z,4.50
2019-01-15T09:33:07.447Z,4.50
2019-01-15T09:35:36.422Z,4.50
2019-01-15T09:38:24.605Z,4.50
2019-01-15T09:41:12.792Z,4.60
2019-01-15T09:43:42.472Z,4.60
2019-01-15T09:46:30.681Z,4.60
2019-01-15T09:49:18.978Z,4.70
2019-01-15T09:52:12.931Z,4.70
2019-01-15T09:54:57.076Z,4.80
2019-01-15T09:57:45.374Z,4.80
2019-01-15T10:00:33.562Z,4.90
2019-01-15T10:03:21.775Z,4.90
2019-01-15T10:06:09.934Z,4.90
2019-01-15T10:11:52.359Z,5.00
2019-01-15T10:14:33.283Z,5.00
2019-01-15T10:17:02.542Z,5.00
2019-01-15T10:19:31.619Z,5.00
2019-01-15T10:22:19.980Z,5.00
2019-01-15T10:28:03.597Z,5.10
2019-01-15T10:31:10.901Z,5.10
2019-01-15T10:39:50.237Z,5.20
2019-01-15T10:51:08.343Z,5.40
2019-01-15T10:53:56.707Z,5.30
2019-01-15T10:56:45.000Z,5.30
2019-01-15T10:59:33.704Z,5.40
2019-01-15T11:02:22.124Z,5.40
2019-01-15T11:05:10.988Z,5.40
2019-01-15T11:07:59.449Z,5.40
2019-01-15T11:10:47.732Z,5.40
2019-01-15T11:13:27.155Z,5.50
2019-01-15T11:15:56.417Z,5.50
2019-01-15T11:18:44.689Z,5.60
2019-01-15T11:21:32.998Z,5.60
2019-01-15T11:24:21.270Z,5.60
2019-01-15T11:27:09.557Z,5.60
2019-01-15T11:29:57.748Z,5.60
2019-01-15T11:32:45.994Z,5.70
2019-01-15T11:35:15.273Z,5.70
2019-01-15T11:38:03.582Z,5.70
2019-01-15T11:40:51.849Z,5.70
2019-01-15T11:43:20.974Z,5.80
2019-01-15T11:45:50.045Z,5.80
2019-01-15T11:48:38.262Z,5.80
2019-01-15T11:51:07.324Z,5.80
2019-01-15T11:53:38.591Z,5.80
2019-01-15T11:56:26.849Z,5.80
2019-01-15T11:59:15.867Z,5.80
2019-01-15T12:02:23.262Z,5.80
2019-01-15T12:05:30.457Z,5.90
2019-01-15T12:08:18.710Z,5.90
2019-01-15T12:11:18.178Z,5.90
2019-01-15T12:13:59.825Z,5.90
2019-01-15T12:17:07.425Z,5.90
2019-01-15T12:20:14.727Z,5.90
2019-01-15T12:23:21.938Z,5.90
2019-01-15T12:26:30.203Z,5.80
2019-01-15T12:29:37.469Z,5.70
2019-01-15T12:32:44.774Z,5.60
2019-01-15T12:35:52.060Z,5.50
2019-01-15T12:38:59.295Z,5.60
2019-01-15T12:42:06.546Z,5.60
2019-01-15T12:45:07.289Z,5.60
2019-01-15T12:47:55.508Z,5.60
2019-01-15T12:50:55.123Z,5.70
2019-01-15T12:53:43.247Z,5.70
2019-01-15T12:56:50.553Z,5.70
2019-01-15T12:59:40.908Z,5.80
2019-01-15T13:02:48.267Z,5.80
2019-01-15T13:05:36.420Z,5.80
2019-01-15T13:08:43.857Z,5.80
2019-01-15T13:11:51.306Z,5.80
2019-01-15T13:14:43.568Z,5.80
2019-01-15T13:17:31.733Z,5.80
2019-01-15T13:20:19.919Z,5.90
2019-01-15T13:23:27.162Z,5.90
2019-01-15T13:26:34.377Z,5.90
2019-01-15T13:29:33.796Z,5.90
2019-01-15T13:32:33.989Z,6.00
2019-01-15T13:35:37.458Z,6.00
2019-01-15T13:38:37.854Z,6.00
2019-01-15T13:41:38.109Z,6.00
2019-01-15T13:44:37.954Z,6.10
2019-01-15T13:47:31.117Z,6.10
2019-01-15T13:50:31.230Z,6.20
2019-01-15T13:53:19.362Z,6.20
2019-01-15T13:56:08.100Z,6.20
2019-01-15T13:59:15.297Z,6.20
2019-01-15T14:02:22.733Z,6.20
2019-01-15T14:05:10.861Z,6.20
2019-01-15T14:07:59.000Z,6.20
2019-01-15T14:10:38.820Z,6.30
2019-01-15T14:13:46.070Z,6.30
2019-01-15T14:16:53.816Z,6.30
2019-01-15T14:20:02.218Z,6.40
2019-01-15T14:23:09.499Z,6.40
2019-01-15T14:26:05.856Z,6.50
2019-01-15T14:28:54.121Z,6.50
2019-01-15T14:31:42.655Z,6.50
2019-01-15T14:34:49.909Z,6.50
2019-01-15T14:37:57.212Z,6.50
2019-01-15T14:41:04.506Z,6.50
2019-01-15T14:44:11.800Z,6.50
2019-01-15T14:47:19.016Z,6.50
2019-01-15T14:50:27.229Z,6.50
2019-01-15T14:53:15.371Z,6.50
2019-01-15T14:56:03.490Z,6.50
2019-01-15T14:58:51.655Z,6.50
2019-01-15T15:01:50.117Z,6.50
2019-01-15T15:04:38.208Z,6.50
2019-01-15T15:07:26.318Z,6.50
2019-01-15T15:10:34.774Z,6.50
2019-01-15T15:13:42.034Z,6.50
2019-01-15T15:16:31.491Z,6.50
2019-01-15T15:19:39.192Z,6.50
2019-01-15T15:22:51.044Z,6.50
2019-01-15T15:25:39.044Z,6.50
2019-01-15T15:28:27.205Z,6.50
2019-01-15T15:31:34.510Z,6.50
2019-01-15T15:34:41.781Z,6.50
2019-01-15T15:37:33.787Z,6.50
2019-01-15T15:40:22.166Z,6.50
2019-01-15T15:43:10.678Z,6.50
2019-01-15T15:46:01.344Z,6.50
2019-01-15T15:48:49.555Z,6.50
2019-01-15T15:51:40.177Z,6.50
2019-01-15T15:54:28.535Z,6.50
2019-01-15T15:57:21.301Z,6.40
2019-01-15T16:00:09.436Z,6.40
2019-01-15T16:02:59.525Z,6.40
2019-01-15T16:06:00.726Z,6.40
2019-01-15T16:09:07.972Z,6.40
2019-01-15T16:12:15.158Z,6.40
2019-01-15T16:15:22.851Z,6.40
2019-01-15T16:18:31.475Z,6.30
2019-01-15T16:21:30.630Z,6.30
2019-01-15T16:24:39.426Z,6.30
2019-01-15T16:27:27.850Z,6.30
2019-01-15T16:30:16.801Z,6.30
2019-01-15T16:33:24.041Z,6.30
2019-01-15T16:36:31.267Z,6.30
2019-01-15T16:39:38.481Z,6.30
2019-01-15T16:42:45.749Z,6.30
2019-01-15T16:45:54.410Z,6.20
2019-01-15T16:49:02.042Z,6.20
2019-01-15T16:51:50.203Z,6.20
2019-01-15T16:54:38.328Z,6.30
2019-01-15T16:57:26.528Z,6.30
2019-01-15T17:00:35.323Z,6.30
2019-01-15T17:03:42.587Z,6.30
2019-01-15T17:06:49.780Z,6.30
2019-01-15T17:09:57.063Z,6.30
2019-01-15T17:13:04.274Z,6.30
2019-01-15T17:16:11.503Z,6.30
2019-01-15T17:19:18.771Z,6.30
2019-01-15T17:22:26.013Z,6.40
2019-01-15T17:25:14.169Z,6.40
2019-01-15T17:28:02.294Z,6.40
2019-01-15T17:30:50.435Z,6.40
2019-01-15T17:33:57.705Z,6.40
2019-01-15T17:36:54.834Z,6.40
2019-01-15T17:40:02.074Z,6.40
2019-01-15T17:43:09.313Z,6.40
2019-01-15T17:45:55.603Z,6.40
2019-01-15T17:48:43.809Z,6.40
2019-01-15T17:51:51.065Z,6.40
2019-01-15T17:54:39.243Z,6.40
2019-01-15T17:57:46.490Z,6.30
2019-01-15T18:00:34.627Z,6.30
2019-01-15T18:03:41.887Z,6.30
2019-01-15T18:06:29.957Z,6.40
2019-01-15T18:09:37.263Z,6.40
2019-01-15T18:12:37.689Z,6.40
2019-01-15T18:15:30.434Z,6.40
2019-01-15T18:18:33.394Z,6.40
2019-01-15T18:21:18.927Z,6.40
2019-01-15T18:24:03.064Z,6.50
2019-01-15T18:27:00.144Z,6.40
2019-01-15T18:29:48.284Z,6.50
2019-01-15T18:32:39.749Z,6.50
2019-01-15T18:35:28.719Z,6.50
2019-01-15T18:38:22.636Z,6.50
2019-01-15T18:41:09.154Z,6.50
2019-01-15T18:43:57.405Z,6.60
2019-01-15T18:46:45.521Z,6.60
2019-01-15T18:49:33.669Z,6.60
2019-01-15T18:52:21.924Z,6.50
2019-01-15T18:55:29.206Z,6.50
2019-01-15T18:58:36.559Z,6.40
2019-01-15T19:01:24.755Z,6.30
2019-01-15T19:04:31.976Z,6.30
2019-01-15T19:07:39.236Z,6.30
2019-01-15T19:10:46.454Z,6.30
2019-01-15T19:13:53.670Z,6.30
2019-01-15T19:16:41.813Z,6.30
2019-01-15T19:19:44.551Z,6.30
2019-01-15T19:22:47.685Z,6.30
2019-01-15T19:28:37.519Z,6.40
2019-01-15T19:31:53.528Z,6.40
2019-01-15T19:34:53.485Z,6.40
2019-01-15T19:37:33.193Z,6.40
2019-01-15T19:40:33.527Z,6.40
2019-01-15T19:43:21.765Z,6.30
2019-01-15T19:46:10.021Z,6.30
2019-01-15T19:49:17.315Z,6.20
2019-01-15T19:52:24.561Z,6.20
2019-01-15T19:55:31.778Z,6.20
2019-01-15T19:58:39.016Z,6.20
2019-01-15T20:01:27.188Z,6.20
2019-01-15T20:04:34.394Z,6.20
2019-01-15T20:07:34.646Z,6.20
2019-01-15T20:10:41.897Z,6.20
2019-01-15T20:13:30.034Z,6.20
2019-01-15T20:16:37.332Z,6.10
2019-01-15T20:19:44.585Z,6.10
2019-01-15T20:22:51.918Z,6.10
2019-01-15T20:25:32.640Z,6.10
2019-01-15T20:28:39.947Z,6.10
2019-01-15T20:31:18.284Z,6.10
2019-01-15T20:34:25.547Z,6.10
2019-01-15T20:37:22.530Z,6.10
2019-01-15T20:40:17.960Z,6.00
2019-01-15T20:43:20.896Z,6.00
2019-01-15T20:46:19.114Z,6.00
2019-01-15T20:49:25.249Z,6.00
2019-01-15T20:52:31.150Z,6.00
2019-01-15T20:55:22.824Z,6.00
2019-01-15T21:03:38.020Z,6.10
2019-01-15T21:06:26.152Z,6.10
2019-01-15T21:09:33.645Z,6.10
2019-01-15T21:12:40.991Z,6.10
2019-01-15T21:15:48.220Z,6.10
2019-01-15T21:18:36.448Z,6.10
2019-01-15T21:21:24.546Z,6.10
2019-01-15T21:24:12.635Z,6.10
2019-01-15T21:27:19.871Z,6.10
2019-01-15T21:30:27.943Z,6.00
2019-01-15T21:33:16.031Z,6.00
2019-01-15T21:36:23.497Z,6.00
2019-01-15T21:39:11.618Z,6.00
2019-01-15T21:41:50.523Z,6.00
2019-01-15T21:44:44.502Z,6.00
2019-01-15T21:47:24.998Z,6.00
2019-01-15T21:50:11.602Z,6.10
2019-01-15T21:52:58.545Z,6.10
2019-01-15T21:55:52.731Z,6.10
2019-01-15T21:58:34.624Z,6.20
2019-01-15T22:01:28.597Z,6.20
2019-01-15T22:04:26.892Z,6.20
2019-01-15T22:07:34.142Z,6.20
2019-01-15T22:10:22.143Z,6.20
2019-01-15T22:13:29.352Z,6.20
2019-01-15T22:16:36.580Z,6.20
2019-01-15T22:19:24.924Z,6.10
2019-01-15T22:22:13.101Z,6.20
2019-01-15T22:25:20.332Z,6.20
2019-01-15T22:28:07.588Z,6.20
2019-01-15T22:30:47.075Z,6.20
2019-01-15T22:33:40.050Z,6.20
2019-01-15T22:36:28.080Z,6.20
2019-01-15T22:39:19.407Z,6.20
2019-01-15T22:41:57.923Z,6.20
2019-01-15T22:44:49.204Z,6.30
2019-01-15T22:47:39.663Z,6.30
2019-01-15T22:50:43.075Z,6.30
2019-01-15T22:53:27.971Z,6.30
2019-01-15T22:56:04.912Z,6.40
2019-01-15T22:59:12.179Z,6.40
2019-01-15T23:02:20.026Z,6.40
2019-01-15T23:05:27.325Z,6.40
2019-01-15T23:08:34.936Z,6.40
2019-01-15T23:11:42.047Z,6.40
2019-01-15T23:14:49.302Z,6.40
2019-01-15T23:18:02.268Z,6.40
2019-01-15T23:21:05.713Z,6.40
2019-01-15T23:24:12.984Z,6.40
2019-01-15T23:27:20.239Z,6.40
2019-01-15T23:30:07.704Z,6.40
2019-01-15T23:33:04.380Z,6.40
2019-01-15T23:36:10.431Z,6.40
2019-01-15T23:39:10.177Z,6.40
2019-01-15T23:42:08.985Z,6.40
2019-01-15T23:44:57.185Z,6.40
2019-01-15T23:48:09.644Z,6.40
2019-01-15T23:51:13.314Z,6.30
2019-01-15T23:54:20.523Z,6.30
2019-01-15T23:57:27.734Z,6.30
